Time;durP1;ratioP1;P1;durP2;ratioP2;P2;SDS_P1;SDS_P2;PMS_P1;PMS_P2;Temp;Humidity;BMP_temperature;BMP_pressure;BME280_temperature;BME280_humidity;BME280_pressure;Samples;Min_cycle;Max_cycle;Signal;HPM_P1;HPM_P2
2023/09/02 00:00:32;;;;;;;15.10;12.10;;;;;;;-146.25;100.00;52244.50;2095800;28;36784;-64
2023/09/02 00:01:34;;;;;;;16.15;11.73;;;;;;;-146.25;100.00;52222.22;2097024;28;20045;-65
2023/09/02 00:02:38;;;;;;;15.27;12.43;;;;;;;-146.25;100.00;52266.81;2095735;28;35701;-65
2023/09/02 00:03:40;;;;;;;14.40;12.10;;;;;;;-146.25;100.00;52242.50;2096147;28;34429;-65
2023/09/02 00:04:44;;;;;;;17.10;13.55;;;;;;;-146.25;100.00;52234.38;2095640;28;35269;-65
2023/09/02 00:05:45;;;;;;;15.70;13.65;;;;;;;-146.25;100.00;52232.34;2096027;28;36749;-64
2023/09/02 00:06:47;;;;;;;14.85;13.32;;;;;;;-146.25;100.00;52244.50;2096427;28;20044;-65
2023/09/02 00:07:51;;;;;;;13.98;12.38;;;;;;;-146.25;100.00;52210.03;2096027;28;35770;-65
2023/09/02 00:08:54;;;;;;;16.95;13.30;;;;;;;-146.25;100.00;52173.56;2096689;28;20816;-65
2023/09/02 00:09:56;;;;;;;17.50;13.75;;;;;;;-146.25;100.00;52220.19;2096389;28;29067;-65
2023/09/02 00:11:00;;;;;;;14.35;12.85;;;;;;;-146.25;100.00;52226.25;2095498;28;39861;-66
2023/09/02 00:12:02;;;;;;;15.70;12.75;;;;;;;-146.25;100.00;52206.00;2096894;28;20933;-65
2023/09/02 00:13:04;;;;;;;16.38;12.68;;;;;;;-146.25;100.00;52252.63;2095819;28;32270;-67
2023/09/02 00:14:08;;;;;;;16.27;13.63;;;;;;;-146.25;100.00;52214.09;2096553;28;25271;-65
2023/09/02 00:15:10;;;;;;;14.65;12.75;;;;;;;-146.25;100.00;52222.22;2095012;28;35142;-64
2023/09/02 00:16:13;;;;;;;20.58;13.13;;;;;;;-146.25;100.00;52228.28;2095565;28;38038;-64
2023/09/02 00:17:15;;;;;;;16.02;13.70;;;;;;;-146.25;100.00;52236.41;2095835;28;20044;-65
2023/09/02 00:18:19;;;;;;;17.02;14.15;;;;;;;-146.25;100.00;52270.88;2087272;28;39649;-64
2023/09/02 00:19:21;;;;;;;17.17;13.63;;;;;;;-146.25;100.00;52246.53;2095115;28;37423;-65
2023/09/02 00:20:23;;;;;;;14.30;12.50;;;;;;;-146.25;100.00;52222.22;2095262;28;36820;-65
2023/09/02 00:21:27;;;;;;;15.00;12.48;;;;;;;-146.25;100.00;52258.72;2095776;28;20041;-65
2023/09/02 00:22:31;;;;;;;15.68;12.25;;;;;;;-146.25;100.00;52222.22;2095668;28;37246;-65
2023/09/02 00:23:32;;;;;;;15.02;12.77;;;;;;;-146.25;100.00;52224.25;2095681;28;32689;-64
2023/09/02 00:24:34;;;;;;;15.95;13.40;;;;;;;-146.25;100.00;52212.06;2096047;28;36078;-65
2023/09/02 00:25:36;;;;;;;16.23;13.23;;;;;;;-146.25;100.00;52218.16;2096252;28;20034;-65
2023/09/02 00:26:40;;;;;;;12.73;11.35;;;;;;;-146.25;100.00;52218.16;2095059;28;39831;-64
2023/09/02 00:27:42;;;;;;;12.00;10.80;;;;;;;-146.25;100.00;52226.25;2094955;28;35384;-65
2023/09/02 00:28:43;;;;;;;16.42;12.30;;;;;;;-146.25;100.00;52248.56;2096464;28;22504;-65
2023/09/02 00:29:50;;;;;;;14.23;11.73;;;;;;;-146.25;100.00;52226.25;2096272;28;20044;-65
2023/09/02 00:30:53;;;;;;;14.50;10.80;;;;;;;-146.25;100.00;52230.31;2096985;28;20176;-65
2023/09/02 00:31:56;;;;;;;13.10;11.35;;;;;;;-146.25;100.00;52206.00;2096154;28;20044;-67
2023/09/02 00:32:58;;;;;;;14.95;12.02;;;;;;;-146.25;100.00;52226.25;2095638;28;26463;-65
2023/09/02 00:34:00;;;;;;;13.70;11.75;;;;;;;-146.25;100.00;52238.44;2096276;28;20052;-65
2023/09/02 00:35:02;;;;;;;13.35;11.95;;;;;;;-146.25;100.00;52258.72;2095927;28;30943;-65
2023/09/02 00:36:04;;;;;;;18.10;13.73;;;;;;;-146.25;100.00;52250.59;2095233;28;27009;-66
2023/09/02 00:37:07;;;;;;;15.68;13.65;;;;;;;-146.25;100.00;52210.03;2095765;28;28020;-64
2023/09/02 00:38:08;;;;;;;15.07;13.00;;;;;;;-146.25;100.00;52218.16;2095735;28;32637;-65
2023/09/02 00:39:12;;;;;;;15.50;13.55;;;;;;;-146.25;100.00;52218.16;2095168;28;28202;-65
2023/09/02 00:40:18;;;;;;;19.98;14.88;;;;;;;-146.25;100.00;52238.44;2079149;28;26670;-64
2023/09/02 00:41:32;;;;;;;15.68;12.88;;;;;;;-146.25;100.00;52206.00;2079963;28;20042;-65
2023/09/02 00:42:34;;;;;;;14.80;12.52;;;;;;;-146.25;100.00;52199.91;2082629;28;20705;-65
2023/09/02 00:43:36;;;;;;;13.82;11.55;;;;;;;-146.25;100.00;52226.25;2097060;28;20068;-64
2023/09/02 00:44:40;;;;;;;17.63;13.43;;;;;;;-146.25;100.00;52222.22;2097441;28;20110;-65
2023/09/02 00:45:42;;;;;;;14.25;11.55;;;;;;;-146.25;100.00;52226.25;2096990;28;30417;-65
2023/09/02 00:46:48;;;;;;;17.42;13.50;;;;;;;-146.25;100.00;52218.16;2097179;28;21083;-65
2023/09/02 00:47:50;;;;;;;16.27;13.88;;;;;;;-146.25;100.00;52210.03;2097659;28;25214;-64
2023/09/02 00:48:52;;;;;;;16.67;12.63;;;;;;;-146.25;100.00;52193.81;2097614;28;25569;-65
2023/09/02 00:49:54;;;;;;;14.07;12.57;;;;;;;-146.25;100.00;52242.50;2105332;28;20862;-65
2023/09/02 00:50:58;;;;;;;14.45;12.82;;;;;;;-146.25;100.00;52230.31;2088020;28;34403;-65
2023/09/02 00:52:00;;;;;;;18.05;13.63;;;;;;;-146.25;100.00;52208.03;2089388;28;26238;-65
2023/09/02 00:53:02;;;;;;;15.00;12.68;;;;;;;-146.25;100.00;52236.41;2097443;28;20415;-65
2023/09/02 00:54:04;;;;;;;15.65;11.80;;;;;;;-146.25;100.00;52250.59;2097149;28;32758;-66
2023/09/02 00:55:07;;;;;;;15.38;12.02;;;;;;;-146.25;100.00;52238.44;2097519;28;20057;-65
2023/09/02 00:56:09;;;;;;;14.82;11.13;;;;;;;-146.25;100.00;52199.91;2097336;28;23900;-65
2023/09/02 00:57:11;;;;;;;14.55;11.73;;;;;;;-146.25;100.00;52244.50;2097823;28;27450;-65
2023/09/02 00:58:13;;;;;;;13.98;11.25;;;;;;;-146.25;100.00;52208.03;2097931;28;20045;-65
2023/09/02 00:59:15;;;;;;;17.80;13.10;;;;;;;-146.25;100.00;52214.09;2097184;28;33737;-65
2023/09/02 01:00:20;;;;;;;17.75;13.30;;;;;;;-146.25;100.00;52272.91;2097665;28;27332;-65
2023/09/02 01:01:22;;;;;;;15.40;12.23;;;;;;;-146.25;100.00;52197.88;2097777;28;20033;-65
2023/09/02 01:02:25;;;;;;;16.80;13.07;;;;;;;-146.25;100.00;52224.25;2098037;28;20049;-64
2023/09/02 01:03:29;;;;;;;18.65;14.15;;;;;;;-146.25;100.00;52214.09;2097256;28;29676;-65
2023/09/02 01:04:33;;;;;;;15.90;13.13;;;;;;;-146.25;100.00;52230.31;2088230;28;32346;-65
2023/09/02 01:05:36;;;;;;;15.98;11.32;;;;;;;-146.25;100.00;52220.19;2081752;28;20034;-65
2023/09/02 01:06:40;;;;;;;13.65;11.35;;;;;;;-146.25;100.00;52226.25;2088847;28;20045;-65
2023/09/02 01:07:43;;;;;;;13.93;11.85;;;;;;;-146.25;100.00;52248.56;2096989;28;20045;-64
2023/09/02 01:08:45;;;;;;;11.32;10.05;;;;;;;-146.25;100.00;52216.13;2096922;28;21712;-64
2023/09/02 01:09:47;;;;;;;13.57;11.85;;;;;;;-146.25;100.00;52203.97;2079881;28;22495;-65
2023/09/02 01:10:49;;;;;;;17.38;12.75;;;;;;;-146.25;100.00;52224.25;2080648;28;25424;-65
2023/09/02 01:11:51;;;;;;;16.48;13.45;;;;;;;-146.25;100.00;52230.31;2088354;28;30980;-65
2023/09/02 01:12:53;;;;;;;20.58;15.13;;;;;;;-146.25;100.00;52250.59;2096857;28;29384;-65
2023/09/02 01:13:55;;;;;;;17.67;15.05;;;;;;;-146.25;100.00;52222.22;2097812;28;20052;-65
2023/09/02 01:14:59;;;;;;;20.27;17.00;;;;;;;-146.25;100.00;52212.06;2096646;28;29679;-65
2023/09/02 01:16:02;;;;;;;17.10;14.00;;;;;;;-146.25;100.00;52224.25;2097023;28;20067;-65
2023/09/02 01:17:04;;;;;;;20.20;14.82;;;;;;;-146.25;100.00;52232.34;2096920;28;23787;-66
2023/09/02 01:18:06;;;;;;;17.42;13.68;;;;;;;-146.25;100.00;52230.31;2096617;28;31739;-65
2023/09/02 01:19:12;;;;;;;16.98;13.43;;;;;;;-146.25;100.00;52244.50;2098019;28;20901;-65
2023/09/02 01:20:18;;;;;;;16.35;12.70;;;;;;;-146.25;100.00;52230.31;2097252;28;20902;-65
2023/09/02 01:21:19;;;;;;;16.80;13.10;;;;;;;-146.25;100.00;52246.53;2097929;28;20412;-63
2023/09/02 01:22:41;;;;;;;18.85;14.20;;;;;;;-146.25;100.00;52230.31;2097758;28;20904;-65
2023/09/02 01:24:18;;;;;;;17.85;13.65;;;;;;;-146.25;100.00;52258.72;2087788;28;33322;-65
2023/09/02 01:25:42;;;;;;;17.10;12.95;;;;;;;-146.25;100.00;52242.50;2093367;28;25993;-65
2023/09/02 01:27:06;;;;;;;19.27;13.27;;;;;;;-146.25;100.00;52234.38;2096848;28;30572;-65
2023/09/02 01:28:17;;;;;;;16.05;11.80;;;;;;;-146.25;100.00;52266.81;2105018;28;20805;-65
2023/09/02 01:29:23;;;;;;;14.85;11.75;;;;;;;-146.25;100.00;52228.28;2096942;28;28014;-65
2023/09/02 01:30:30;;;;;;;17.23;12.35;;;;;;;-146.25;100.00;52250.59;2089770;28;23311;-65
2023/09/02 01:31:33;;;;;;;13.23;11.02;;;;;;;-146.25;100.00;52193.81;2090385;28;23699;-65
2023/09/02 01:32:42;;;;;;;14.82;11.55;;;;;;;-146.25;100.00;52206.00;2088607;28;36816;-64
2023/09/02 01:33:52;;;;;;;14.00;10.93;;;;;;;-146.25;100.00;52260.72;2081436;28;20081;-65
2023/09/02 01:34:56;;;;;;;18.45;13.40;;;;;;;-146.25;100.00;52238.44;2090087;28;31744;-65
2023/09/02 01:36:03;;;;;;;13.07;11.20;;;;;;;-146.25;100.00;52212.06;2096873;28;20810;-65
2023/09/02 01:37:08;;;;;;;13.50;11.05;;;;;;;-146.25;100.00;52222.22;2081317;28;26754;-65
2023/09/02 01:38:11;;;;;;;15.43;11.70;;;;;;;-146.25;100.00;52228.28;2082083;28;20755;-65
2023/09/02 01:39:15;;;;;;;15.68;11.65;;;;;;;-146.25;100.00;52238.44;2088681;28;27384;-65
2023/09/02 01:40:25;;;;;;;13.30;10.88;;;;;;;-146.25;100.00;52266.81;2096684;28;27612;-65
2023/09/02 01:41:31;;;;;;;12.15;10.10;;;;;;;-146.25;100.00;52262.75;2096644;28;30273;-65
2023/09/02 01:42:37;;;;;;;11.77;9.77;;;;;;;-146.25;100.00;52248.56;2081486;28;22308;-65
2023/09/02 01:43:39;;;;;;;15.98;11.75;;;;;;;-146.25;100.00;52272.91;2082808;28;25579;-65
2023/09/02 01:44:42;;;;;;;14.85;11.40;;;;;;;-146.25;100.00;52246.53;2096691;28;20041;-64
2023/09/02 01:45:46;;;;;;;11.85;10.50;;;;;;;-146.25;100.00;52238.44;2096420;28;20764;-65
2023/09/02 01:46:49;;;;;;;15.00;10.90;;;;;;;-146.25;100.00;52238.44;2088182;28;29732;-65
2023/09/02 01:47:51;;;;;;;18.35;12.20;;;;;;;-146.25;100.00;52214.09;2088947;28;27215;-65
2023/09/02 01:48:54;;;;;;;14.65;11.60;;;;;;;-146.25;100.00;52201.94;2096397;28;29395;-65
2023/09/02 01:49:58;;;;;;;15.70;12.23;;;;;;;-146.25;100.00;52242.50;2088881;28;20115;-65
2023/09/02 01:51:02;;;;;;;13.68;10.98;;;;;;;-146.25;100.00;52250.59;2080904;28;20046;-65
2023/09/02 01:52:07;;;;;;;11.88;10.57;;;;;;;-146.25;100.00;52226.25;2096826;28;20115;-65
2023/09/02 01:53:10;;;;;;;14.82;10.80;;;;;;;-146.25;100.00;52242.50;2097745;28;20095;-65
2023/09/02 01:54:12;;;;;;;13.95;11.52;;;;;;;-146.25;100.00;52246.53;2097198;28;22305;-65
2023/09/02 01:55:16;;;;;;;15.60;11.88;;;;;;;-146.25;100.00;52236.41;2102996;28;23147;-66
2023/09/02 01:56:37;;;;;;;12.48;10.55;;;;;;;-146.25;100.00;52262.75;2096601;28;20052;-65
2023/09/02 01:57:43;;;;;;;12.52;11.20;;;;;;;-146.25;100.00;52240.47;2087197;28;20076;-65
2023/09/02 01:58:45;;;;;;;14.98;11.30;;;;;;;-146.25;100.00;52264.78;2072234;28;20046;-66
2023/09/02 01:59:47;;;;;;;15.20;12.55;;;;;;;-146.25;100.00;52260.72;2080205;28;20031;-65
2023/09/02 02:00:49;;;;;;;15.40;12.75;;;;;;;-146.25;100.00;52270.88;2101349;28;20167;-65
2023/09/02 02:01:51;;;;;;;16.38;12.40;;;;;;;-146.25;100.00;52262.75;2096647;28;20046;-65
2023/09/02 02:02:55;;;;;;;16.08;12.35;;;;;;;-146.25;100.00;52222.22;2096535;28;21536;-66
2023/09/02 02:04:37;;;;;;;14.18;11.38;;;;;;;-146.25;100.00;52242.50;2096351;28;20056;-65
2023/09/02 02:05:44;;;;;;;;;;;;;;;-146.25;100.00;52197.88;2097546;28;20777;-65
2023/09/02 02:06:52;;;;;;;13.75;11.35;;;;;;;-146.25;100.00;52264.78;2097344;28;28720;-64
2023/09/02 02:08:01;;;;;;;16.55;12.13;;;;;;;-146.25;100.00;52262.75;2087667;28;34464;-65
2023/09/02 02:09:08;;;;;;;16.23;11.25;;;;;;;-146.25;100.00;52228.28;2083153;28;20050;-65
2023/09/02 02:10:15;;;;;;;16.13;12.27;;;;;;;-146.25;100.00;52270.88;2079992;28;29721;-65
2023/09/02 02:11:21;;;;;;;14.98;12.55;;;;;;;-146.25;100.00;52246.53;2090211;28;20306;-65
2023/09/02 02:12:26;;;;;;;16.67;12.32;;;;;;;-146.25;100.00;52258.72;2096405;28;20048;-65
2023/09/02 02:13:30;;;;;;;16.65;12.25;;;;;;;-146.25;100.00;52246.53;2089795;28;20160;-64
2023/09/02 02:14:33;;;;;;;17.40;12.27;;;;;;;-146.25;100.00;52266.81;2096385;28;21186;-65
2023/09/02 02:15:35;;;;;;;15.25;12.07;;;;;;;-146.25;100.00;52210.03;2095922;28;28294;-65
2023/09/02 02:16:37;;;;;;;13.18;10.88;;;;;;;-146.25;100.00;52266.81;2096247;28;32635;-65
2023/09/02 02:17:43;;;;;;;15.93;11.65;;;;;;;-146.25;100.00;52262.75;2096451;28;21099;-66
2023/09/02 02:18:44;;;;;;;18.13;12.23;;;;;;;-146.25;100.00;52264.78;2096550;28;23188;-65
2023/09/02 02:19:51;;;;;;;15.30;12.45;;;;;;;-146.25;100.00;52246.53;2105055;28;20048;-64
2023/09/02 02:21:03;;;;;;;17.42;13.57;;;;;;;-146.25;100.00;52242.50;2103895;28;28464;-65
2023/09/02 02:22:05;;;;;;;16.73;13.20;;;;;;;-146.25;100.00;52242.50;2096894;28;20040;-65
2023/09/02 02:23:10;;;;;;;17.95;12.95;;;;;;;-146.25;100.00;52252.63;2080653;28;20128;-66
2023/09/02 02:24:14;;;;;;;16.80;12.38;;;;;;;-146.25;100.00;52238.44;2080117;28;26302;-65
2023/09/02 02:25:16;;;;;;;17.75;12.98;;;;;;;-146.25;100.00;52268.84;2087795;28;23178;-65
2023/09/02 02:26:18;;;;;;;16.08;12.70;;;;;;;-146.25;100.00;52234.38;2088204;28;28920;-65
2023/09/02 02:27:20;;;;;;;14.90;11.43;;;;;;;-146.25;100.00;52228.28;2088335;28;27606;-65
2023/09/02 02:28:23;;;;;;;15.40;12.45;;;;;;;-146.25;100.00;52270.88;2090281;28;20180;-65
2023/09/02 02:29:25;;;;;;;14.77;11.60;;;;;;;-146.25;100.00;52230.31;2088115;28;20976;-66
2023/09/02 02:30:26;;;;;;;13.00;10.85;;;;;;;-146.25;100.00;52256.69;2087978;28;23456;-65
2023/09/02 02:31:28;;;;;;;14.55;11.00;;;;;;;-146.25;100.00;52224.25;2088064;28;27865;-65
2023/09/02 02:32:30;;;;;;;12.32;10.48;;;;;;;-146.25;100.00;52240.47;2088285;28;29815;-66
2023/09/02 02:33:32;;;;;;;12.57;10.35;;;;;;;-146.25;100.00;52295.19;2087661;28;24986;-65
2023/09/02 02:34:34;;;;;;;12.57;9.70;;;;;;;-146.25;100.00;52232.34;2079897;28;20135;-66
2023/09/02 02:35:36;;;;;;;15.70;10.70;;;;;;;-146.25;100.00;52256.69;2079739;28;20240;-65
2023/09/02 02:36:38;;;;;;;13.85;11.15;;;;;;;-146.25;100.00;52234.38;2080180;28;20176;-65
2023/09/02 02:37:40;;;;;;;14.50;11.48;;;;;;;-146.25;100.00;52272.91;2071412;28;30121;-65
2023/09/02 02:38:41;;;;;;;13.32;10.15;;;;;;;-146.25;100.00;52238.44;2079886;28;27825;-65
2023/09/02 02:39:44;;;;;;;10.50;9.15;;;;;;;-146.25;100.00;52230.31;2087837;28;20092;-65
2023/09/02 02:40:48;;;;;;;12.73;9.65;;;;;;;-146.25;100.00;52258.72;2088343;28;21098;-65
2023/09/02 02:41:53;;;;;;;12.70;10.10;;;;;;;-146.25;100.00;52250.59;2087837;28;22347;-65
2023/09/02 02:42:54;;;;;;;13.18;10.52;;;;;;;-146.25;100.00;52295.19;2087683;28;27339;-65
2023/09/02 02:43:56;;;;;;;13.00;11.02;;;;;;;-146.25;100.00;52270.88;2087907;28;28045;-66
2023/09/02 02:44:58;;;;;;;14.90;12.75;;;;;;;-146.25;100.00;52214.09;2079365;28;20057;-65
2023/09/02 02:46:00;;;;;;;15.23;12.15;;;;;;;-146.25;100.00;52268.84;2079215;28;26882;-65
2023/09/02 02:47:04;;;;;;;14.60;11.88;;;;;;;-146.25;100.00;52254.66;2088411;28;20072;-65
2023/09/02 02:48:11;;;;;;;17.67;12.93;;;;;;;-146.25;100.00;52218.16;2088678;28;20038;-65
2023/09/02 02:49:13;;;;;;;16.55;12.45;;;;;;;-146.25;100.00;52256.69;2088279;28;38226;-65
2023/09/02 02:50:15;;;;;;;13.65;11.43;;;;;;;-146.25;100.00;52262.75;2088962;28;20143;-65
2023/09/02 02:51:18;;;;;;;15.07;12.07;;;;;;;-146.25;100.00;52268.84;2087875;28;20976;-65
2023/09/02 02:52:21;;;;;;;15.32;12.35;;;;;;;-146.25;100.00;52228.28;2080574;28;20089;-65
2023/09/02 02:53:24;;;;;;;16.33;12.80;;;;;;;-146.25;100.00;52248.56;2079821;28;20042;-65
2023/09/02 02:54:30;;;;;;;15.98;12.40;;;;;;;-146.25;100.00;52218.16;2085171;28;20041;-64
2023/09/02 02:55:34;;;;;;;17.83;13.27;;;;;;;-146.25;100.00;52218.16;2087733;28;20183;-65
2023/09/02 02:56:40;;;;;;;17.33;13.05;;;;;;;-146.25;100.00;52260.72;2088155;28;20084;-65
2023/09/02 02:57:44;;;;;;;18.80;12.68;;;;;;;-146.25;100.00;52307.38;2087788;28;20763;-65
2023/09/02 02:58:49;;;;;;;16.80;12.35;;;;;;;-146.25;100.00;52256.69;2088131;28;20099;-65
2023/09/02 02:59:51;;;;;;;16.33;12.73;;;;;;;-146.25;100.00;52262.75;2087735;28;20275;-65
2023/09/02 03:01:05;;;;;;;16.48;13.25;;;;;;;-146.25;100.00;52230.31;2087548;28;21008;-65
2023/09/02 03:02:07;;;;;;;17.67;13.57;;;;;;;-146.25;100.00;52230.31;2087802;28;20143;-66
2023/09/02 03:03:10;;;;;;;19.52;14.05;;;;;;;-146.25;100.00;52266.81;2088569;28;20570;-65
2023/09/02 03:04:13;;;;;;;13.63;11.00;;;;;;;-146.25;100.00;52260.72;2087426;28;20107;-65
2023/09/02 03:05:15;;;;;;;15.57;11.45;;;;;;;-146.25;100.00;52250.59;2087699;28;26431;-65
2023/09/02 03:06:20;;;;;;;16.35;11.52;;;;;;;-146.25;100.00;52291.16;2087114;28;20037;-65
2023/09/02 03:07:21;;;;;;;14.80;11.32;;;;;;;-146.25;100.00;52238.44;2080032;28;20045;-65
2023/09/02 03:08:23;;;;;;;16.88;12.35;;;;;;;-146.25;100.00;52258.72;2079066;28;30635;-66
2023/09/02 03:09:25;;;;;;;15.30;11.90;;;;;;;-146.25;100.00;52270.88;2087998;28;24249;-66
2023/09/02 03:10:27;;;;;;;13.63;11.20;;;;;;;-146.25;100.00;52276.97;2088307;28;20295;-64
2023/09/02 03:11:28;;;;;;;15.43;11.77;;;;;;;-146.25;100.00;52232.34;2087766;28;20227;-65
2023/09/02 03:12:31;;;;;;;16.75;11.90;;;;;;;-146.25;100.00;52236.41;2079684;28;20048;-65
2023/09/02 03:13:33;;;;;;;13.73;10.98;;;;;;;-146.25;100.00;52299.25;2079798;28;20058;-65
2023/09/02 03:14:40;;;;;;;14.20;11.15;;;;;;;-146.25;100.00;52262.75;2071661;28;20038;-65
2023/09/02 03:15:49;;;;;;;14.25;11.00;;;;;;;-146.25;100.00;52266.81;2081363;28;20060;-65
2023/09/02 03:16:52;;;;;;;15.43;12.32;;;;;;;-146.25;100.00;52266.81;2088566;28;20037;-66
2023/09/02 03:17:54;;;;;;;15.85;12.50;;;;;;;-146.25;100.00;52268.84;2087858;28;20042;-65
2023/09/02 03:19:01;;;;;;;14.93;11.77;;;;;;;-146.25;100.00;52283.03;2079795;28;20042;-66
2023/09/02 03:20:06;;;;;;;15.40;11.68;;;;;;;-146.25;100.00;52226.25;2087738;28;20161;-65
2023/09/02 03:21:09;;;;;;;14.80;11.73;;;;;;;-146.25;100.00;52268.84;2087522;28;20179;-65
2023/09/02 03:22:14;;;;;;;13.45;10.60;;;;;;;-146.25;100.00;52254.66;2079969;28;20455;-65
2023/09/02 03:23:18;;;;;;;14.27;10.15;;;;;;;-146.25;100.00;52258.72;2072017;28;21020;-65
2023/09/02 03:24:20;;;;;;;12.98;11.13;;;;;;;-146.25;100.00;52262.75;2083962;28;20048;-65
2023/09/02 03:25:24;;;;;;;14.23;11.95;;;;;;;-146.25;100.00;52293.19;2087090;28;20041;-65
2023/09/02 03:26:27;;;;;;;14.93;11.65;;;;;;;-146.25;100.00;52230.31;2071809;28;20133;-65
2023/09/02 03:27:29;;;;;;;18.75;12.75;;;;;;;-146.25;100.00;52264.78;2071562;28;20157;-64
2023/09/02 03:28:31;;;;;;;17.30;12.50;;;;;;;-146.25;100.00;52276.97;2088099;28;20038;-65
2023/09/02 03:29:34;;;;;;;17.10;13.48;;;;;;;-146.25;100.00;52240.47;2088254;28;20682;-65
2023/09/02 03:30:37;;;;;;;15.40;12.60;;;;;;;-146.25;100.00;52246.53;2087895;28;20041;-65
2023/09/02 03:31:40;;;;;;;12.48;10.45;;;;;;;-146.25;100.00;52270.88;2079123;28;20167;-65
2023/09/02 03:32:45;;;;;;;13.50;11.45;;;;;;;-146.25;100.00;52258.72;2079890;28;20080;-65
2023/09/02 03:33:49;;;;;;;13.95;10.70;;;;;;;-146.25;100.00;52264.78;2087378;28;25136;-65
2023/09/02 03:34:55;;;;;;;16.48;11.98;;;;;;;-146.25;100.00;52283.03;2087813;28;20038;-65
2023/09/02 03:35:57;;;;;;;18.98;12.68;;;;;;;-146.25;100.00;52276.97;2087324;28;27253;-65
2023/09/02 03:36:59;;;;;;;15.77;11.70;;;;;;;-146.25;100.00;52254.66;2087810;28;27407;-66
2023/09/02 03:38:01;;;;;;;15.77;11.27;;;;;;;-146.25;100.00;52222.22;2089036;28;20030;-65
2023/09/02 03:39:02;;;;;;;15.30;12.20;;;;;;;-146.25;100.00;52256.69;2087679;28;20160;-65
2023/09/02 03:40:05;;;;;;;13.93;11.35;;;;;;;-146.25;100.00;52258.72;2079280;28;20046;-65
2023/09/02 03:41:12;;;;;;;13.18;11.63;;;;;;;-146.25;100.00;52274.94;2079936;28;20038;-66
2023/09/02 03:42:14;;;;;;;17.98;12.55;;;;;;;-146.25;100.00;52242.50;2087198;28;24318;-65
2023/09/02 03:43:15;;;;;;;18.00;13.02;;;;;;;-146.25;100.00;52258.72;2088214;28;26807;-65
2023/09/02 03:44:19;;;;;;;16.67;12.93;;;;;;;-146.25;100.00;52258.72;2088251;28;20899;-65
2023/09/02 03:45:21;;;;;;;18.33;12.60;;;;;;;-146.25;100.00;52297.22;2087650;28;20053;-65
2023/09/02 03:46:25;;;;;;;18.90;13.55;;;;;;;-146.25;100.00;52258.72;2087334;28;28492;-65
2023/09/02 03:47:33;;;;;;;14.50;11.23;;;;;;;-146.25;100.00;52278.97;2087471;28;20076;-65
2023/09/02 03:48:38;;;;;;;14.70;11.00;;;;;;;-146.25;100.00;52295.19;2080042;28;20038;-65
2023/09/02 03:49:43;;;;;;;17.48;13.18;;;;;;;-146.25;100.00;52262.75;2079538;28;20054;-65
2023/09/02 03:51:16;;;;;;;20.48;13.27;;;;;;;-146.25;100.00;52321.56;2079580;28;24644;-65
2023/09/02 03:52:23;;;;;;;18.60;12.00;;;;;;;-146.25;100.00;52254.66;2076327;28;20914;-65
2023/09/02 03:53:25;;;;;;;14.57;10.93;;;;;;;-146.25;100.00;52262.75;2082388;28;24798;-65
2023/09/02 03:54:30;;;;;;;11.45;9.95;;;;;;;-146.25;100.00;52224.25;2092661;28;20150;-65
2023/09/02 03:55:32;;;;;;;11.98;9.82;;;;;;;-146.25;100.00;52258.72;2095707;28;20115;-65
2023/09/02 03:56:36;;;;;;;13.15;10.38;;;;;;;-146.25;100.00;52252.63;2095403;28;26509;-65
2023/09/02 03:57:38;;;;;;;14.32;10.82;;;;;;;-146.25;100.00;52246.53;2095930;28;20029;-66
2023/09/02 03:58:40;;;;;;;14.50;10.82;;;;;;;-146.25;100.00;52283.03;2086843;28;38862;-65
2023/09/02 03:59:43;;;;;;;13.43;10.43;;;;;;;-146.25;100.00;52238.44;2096558;28;20048;-65
2023/09/02 04:00:45;;;;;;;13.82;10.40;;;;;;;-146.25;100.00;52222.22;2104558;28;20075;-65
2023/09/02 04:01:47;;;;;;;12.80;10.95;;;;;;;-146.25;100.00;52266.81;2095850;28;20052;-65
2023/09/02 04:02:49;;;;;;;18.00;12.68;;;;;;;-146.25;100.00;52313.44;2087063;28;21095;-66
2023/09/02 04:03:55;;;;;;;15.40;11.88;;;;;;;-146.25;100.00;52293.19;2087898;28;20037;-65
2023/09/02 04:04:58;;;;;;;18.58;11.73;;;;;;;-146.25;100.00;52270.88;2087708;28;20894;-65
2023/09/02 04:06:04;;;;;;;12.57;10.43;;;;;;;-146.25;100.00;52266.81;2095067;28;20157;-65
2023/09/02 04:07:05;;;;;;;11.50;9.32;;;;;;;-146.25;100.00;52264.78;2087494;28;30028;-66
2023/09/02 04:08:08;;;;;;;13.15;9.32;;;;;;;-146.25;100.00;52230.31;2087385;28;30267;-65
2023/09/02 04:09:12;;;;;;;13.65;10.40;;;;;;;-146.25;100.00;52264.78;2087428;28;25151;-65
2023/09/02 04:10:16;;;;;;;14.02;10.48;;;;;;;-146.25;100.00;52252.63;2079594;28;20953;-65
2023/09/02 04:11:18;;;;;;;11.77;9.85;;;;;;;-146.25;100.00;52270.88;2071112;28;24039;-66
2023/09/02 04:12:19;;;;;;;13.23;10.25;;;;;;;-146.25;100.00;52258.72;2087405;28;28161;-65
2023/09/02 04:13:28;;;;;;;13.55;11.15;;;;;;;-146.25;100.00;52283.03;2087501;28;20060;-65
2023/09/02 04:14:31;;;;;;;15.27;11.38;;;;;;;-146.25;100.00;52283.03;2073095;28;20046;-65
2023/09/02 04:15:33;;;;;;;14.10;11.65;;;;;;;-146.25;100.00;52268.84;2080342;28;20042;-65
2023/09/02 04:16:35;;;;;;;17.30;11.57;;;;;;;-146.25;100.00;52281.00;2087591;28;20073;-65
2023/09/02 04:17:37;;;;;;;19.52;12.75;;;;;;;-146.25;100.00;52254.66;2087731;28;20902;-65
2023/09/02 04:18:39;;;;;;;14.88;12.10;;;;;;;-146.25;100.00;52315.47;2088502;28;20049;-66
2023/09/02 04:19:41;;;;;;;16.02;12.23;;;;;;;-146.25;100.00;52283.03;2088987;28;20096;-65
2023/09/02 04:20:43;;;;;;;18.40;13.55;;;;;;;-146.25;100.00;52281.00;2089210;28;20123;-66
2023/09/02 04:21:46;;;;;;;15.38;11.73;;;;;;;-146.25;100.00;52283.03;2088562;28;20956;-66
2023/09/02 04:22:48;;;;;;;15.25;11.88;;;;;;;-146.25;100.00;52246.53;2089372;28;20046;-66
2023/09/02 04:23:50;;;;;;;16.67;11.25;;;;;;;-146.25;100.00;52287.09;2090038;28;20096;-65
2023/09/02 04:24:52;;;;;;;15.93;11.55;;;;;;;-146.25;100.00;52266.81;2089910;28;20033;-66
2023/09/02 04:25:57;;;;;;;13.70;10.07;;;;;;;-146.25;100.00;52256.69;2088689;28;31882;-65
2023/09/02 04:27:00;;;;;;;14.93;11.57;;;;;;;-146.25;100.00;52303.31;2088563;28;20095;-65
2023/09/02 04:28:02;;;;;;;14.77;10.25;;;;;;;-146.25;100.00;52254.66;2088861;28;20048;-65
2023/09/02 04:29:06;;;;;;;12.73;10.63;;;;;;;-146.25;100.00;52248.56;2089560;28;23393;-65
2023/09/02 04:30:09;;;;;;;12.57;9.63;;;;;;;-146.25;100.00;52268.84;2088968;28;20156;-65
2023/09/02 04:31:10;;;;;;;11.50;9.38;;;;;;;-146.25;100.00;52256.69;2080430;28;21009;-65
2023/09/02 04:32:13;;;;;;;14.05;10.57;;;;;;;-146.25;100.00;52262.75;2080688;28;20788;-66
2023/09/02 04:33:18;;;;;;;14.93;11.32;;;;;;;-146.25;100.00;52291.16;2080349;28;21488;-65
2023/09/02 04:34:24;;;;;;;17.92;12.93;;;;;;;-146.25;100.00;52291.16;2081487;28;20053;-65
2023/09/02 04:35:26;;;;;;;17.77;13.50;;;;;;;-146.25;100.00;52281.00;2081879;28;20843;-65
2023/09/02 04:36:29;;;;;;;17.58;12.20;;;;;;;-146.25;100.00;52301.28;2095706;28;20041;-66
2023/09/02 04:37:31;;;;;;;16.55;12.30;;;;;;;-146.25;100.00;52248.56;2096875;28;20041;-65
2023/09/02 04:38:33;;;;;;;15.82;12.15;;;;;;;-146.25;100.00;52283.03;2088918;28;22564;-65
2023/09/02 04:39:39;;;;;;;17.45;12.38;;;;;;;-146.25;100.00;52258.72;2088960;28;20507;-65
2023/09/02 04:40:44;;;;;;;21.38;13.32;;;;;;;-146.25;100.00;52262.75;2081352;28;20045;-65
2023/09/02 04:41:46;;;;;;;17.90;12.18;;;;;;;-146.25;100.00;52295.19;2081008;28;20045;-66
2023/09/02 04:42:48;;;;;;;17.38;12.65;;;;;;;-146.25;100.00;52250.59;2080691;28;20042;-65
2023/09/02 04:43:49;;;;;;;19.42;11.93;;;;;;;-146.25;100.00;52268.84;2080777;28;20042;-64
2023/09/02 04:44:51;;;;;;;17.40;11.88;;;;;;;-146.25;100.00;52305.34;2088648;28;20041;-65